createdAt,value
2022-12-17T00:01:41.733Z,78.28
2022-12-17T00:04:45.532Z,78.80
2022-12-17T00:07:49.675Z,78.07
2022-12-17T00:10:56.704Z,86.53
2022-12-17T00:14:00.587Z,73.38
2022-12-17T00:17:04.680Z,80.20
2022-12-17T00:20:08.237Z,79.82
2022-12-17T00:23:30.359Z,80.15
2022-12-17T00:26:34.482Z,75.63
2022-12-17T00:29:47.407Z,83.63
2022-12-17T00:32:51.558Z,77.70
2022-12-17T00:35:55.638Z,76.55
2022-12-17T00:39:00.841Z,79.18
2022-12-17T00:42:04.952Z,77.32
2022-12-17T00:45:12.142Z,81.05
2022-12-17T00:48:15.854Z,83.38
2022-12-17T00:51:20.029Z,89.10
2022-12-17T00:54:23.944Z,86.47
2022-12-17T00:57:27.681Z,87.85
2022-12-17T01:00:33.707Z,85.45
2022-12-17T01:03:38.049Z,119.97
2022-12-17T01:06:44.017Z,88.93
2022-12-17T01:09:47.851Z,135.68
2022-12-17T01:12:51.736Z,84.88
2022-12-17T01:15:57.176Z,89.72
2022-12-17T01:19:01.317Z,87.22
2022-12-17T01:22:06.221Z,83.05
2022-12-17T01:25:10.367Z,78.32
2022-12-17T01:28:17.506Z,86.60
2022-12-17T01:31:21.655Z,77.90
2022-12-17T01:34:25.275Z,79.60
2022-12-17T01:37:35.726Z,84.47
2022-12-17T01:40:39.729Z,75.85
2022-12-17T01:43:57.461Z,88.32
2022-12-17T01:47:12.058Z,85.50
2022-12-17T01:50:16.925Z,76.78
2022-12-17T01:53:22.920Z,82.90
2022-12-17T01:56:29.506Z,91.78
2022-12-17T01:59:37.330Z,89.25
2022-12-17T02:02:43.780Z,81.50
2022-12-17T02:06:12.458Z,88.78
2022-12-17T02:09:32.365Z,98.80
2022-12-17T02:13:05.131Z,89.47
2022-12-17T02:16:16.124Z,88.97
2022-12-17T02:19:42.847Z,97.20
2022-12-17T02:23:03.256Z,89.78
2022-12-17T02:26:13.495Z,94.35
2022-12-17T02:29:20.550Z,90.32
2022-12-17T02:32:26.074Z,89.75
2022-12-17T02:35:45.497Z,87.82
2022-12-17T02:38:50.741Z,93.18
2022-12-17T02:42:00.214Z,97.05
2022-12-17T02:45:05.458Z,99.28
2022-12-17T02:48:10.097Z,88.80
2022-12-17T02:51:16.646Z,88.13
2022-12-17T02:54:22.876Z,101.65
2022-12-17T02:57:32.259Z,94.93
2022-12-17T03:00:36.173Z,96.28
2022-12-17T03:03:40.321Z,92.88
2022-12-17T03:06:44.727Z,90.05
2022-12-17T03:09:50.958Z,101.10
2022-12-17T03:12:55.347Z,93.22
2022-12-17T03:15:59.693Z,83.15
2022-12-17T03:19:03.643Z,85.43
2022-12-17T03:22:07.402Z,82.32
2022-12-17T03:25:14.279Z,76.85
2022-12-17T03:28:26.684Z,82.93
2022-12-17T03:31:30.357Z,81.03
2022-12-17T03:34:37.580Z,74.85
2022-12-17T03:37:41.627Z,81.45
2022-12-17T03:40:45.335Z,74.93
2022-12-17T03:43:51.076Z,80.32
2022-12-17T03:46:55.139Z,80.55
2022-12-17T03:50:18.673Z,79.40
2022-12-17T03:53:23.595Z,81.25
2022-12-17T03:56:27.895Z,67.45
2022-12-17T03:59:35.269Z,79.05
2022-12-17T04:02:42.125Z,87.00
2022-12-17T04:05:46.151Z,79.20
2022-12-17T04:08:50.086Z,79.53
2022-12-17T04:11:54.114Z,84.32
2022-12-17T04:14:57.746Z,80.72
2022-12-17T04:18:01.719Z,77.70
2022-12-17T04:21:05.675Z,81.53
2022-12-17T04:24:12.602Z,85.95
2022-12-17T04:27:16.760Z,82.93
2022-12-17T04:30:20.367Z,87.15
2022-12-17T04:33:24.981Z,86.20
2022-12-17T04:36:28.880Z,72.78
2022-12-17T04:39:37.125Z,83.97
2022-12-17T04:42:41.114Z,84.13
2022-12-17T04:45:44.896Z,81.07
2022-12-17T04:48:51.078Z,77.45
2022-12-17T04:51:54.941Z,86.50
2022-12-17T04:54:58.729Z,84.18
2022-12-17T04:58:02.615Z,81.18
2022-12-17T05:01:10.474Z,85.57
2022-12-17T05:04:14.500Z,80.30
2022-12-17T05:07:18.387Z,85.68
2022-12-17T05:10:23.239Z,85.13
2022-12-17T05:13:28.835Z,83.68
2022-12-17T05:16:35.685Z,79.82
2022-12-17T05:19:39.591Z,87.80
2022-12-17T05:22:43.397Z,80.10
2022-12-17T05:25:47.254Z,71.50
2022-12-17T05:28:51.438Z,80.13
2022-12-17T05:31:58.595Z,79.53
2022-12-17T05:35:02.510Z,77.28
2022-12-17T05:38:06.746Z,89.40
2022-12-17T05:41:14.829Z,80.75
2022-12-17T05:44:18.522Z,87.95
2022-12-17T05:47:25.187Z,86.00
2022-12-17T05:50:29.509Z,84.32
2022-12-17T05:53:34.275Z,91.37
2022-12-17T05:56:38.569Z,89.50
2022-12-17T05:59:43.785Z,90.00
2022-12-17T06:02:47.814Z,86.68
2022-12-17T06:05:54.964Z,78.05
2022-12-17T06:08:59.589Z,89.28
2022-12-17T06:12:03.663Z,89.93
2022-12-17T06:15:07.751Z,81.70
2022-12-17T06:18:17.051Z,89.07
2022-12-17T06:21:21.478Z,99.35
2022-12-17T06:24:25.599Z,99.85
2022-12-17T06:27:29.350Z,95.47
2022-12-17T06:30:33.427Z,95.05
2022-12-17T06:33:37.726Z,96.88
2022-12-17T06:36:41.832Z,101.03
2022-12-17T06:39:45.723Z,97.85
2022-12-17T06:42:49.512Z,100.57
2022-12-17T06:45:56.575Z,94.90
2022-12-17T06:49:00.769Z,98.22
2022-12-17T06:52:04.538Z,89.22
2022-12-17T06:55:08.112Z,94.20
2022-12-17T06:58:19.739Z,93.22
2022-12-17T07:01:25.716Z,93.90
2022-12-17T07:04:29.373Z,93.93
2022-12-17T07:07:33.203Z,92.60
2022-12-17T07:10:37.065Z,90.90
2022-12-17T07:13:43.971Z,93.25
2022-12-17T07:16:47.801Z,89.68
2022-12-17T07:20:02.557Z,95.97
2022-12-17T07:23:06.934Z,87.70
2022-12-17T07:26:11.062Z,86.15
2022-12-17T07:29:15.633Z,75.30
2022-12-17T07:32:33.183Z,76.57
2022-12-17T07:35:37.355Z,73.35
2022-12-17T07:38:41.321Z,72.25
2022-12-17T07:41:48.360Z,77.57
2022-12-17T07:44:52.154Z,79.35
2022-12-17T07:47:56.197Z,75.95
2022-12-17T07:51:00.006Z,76.18
2022-12-17T07:54:04.849Z,71.33
2022-12-17T07:57:19.971Z,73.43
2022-12-17T08:00:24.862Z,74.95
2022-12-17T08:03:28.923Z,76.80
2022-12-17T08:06:33.095Z,79.50
2022-12-17T08:09:36.760Z,64.97
2022-12-17T08:12:40.819Z,66.93
2022-12-17T08:15:44.633Z,72.28
2022-12-17T08:18:58.649Z,72.00
2022-12-17T08:22:02.514Z,73.35
2022-12-17T08:25:09.556Z,73.90
2022-12-17T08:28:49.011Z,73.15
2022-12-17T08:31:43.678Z,77.00
2022-12-17T08:34:48.988Z,75.80
2022-12-17T08:37:52.794Z,80.57
2022-12-17T08:40:56.630Z,75.47
2022-12-17T08:44:00.489Z,71.75
2022-12-17T08:47:04.504Z,73.68
2022-12-17T08:50:11.361Z,72.35
2022-12-17T08:53:22.829Z,69.70
2022-12-17T08:56:26.846Z,69.30
2022-12-17T08:59:30.961Z,65.32
2022-12-17T09:02:35.096Z,61.40
2022-12-17T09:05:39.343Z,62.00
2022-12-17T09:08:43.067Z,63.90
2022-12-17T09:11:47.032Z,60.72
2022-12-17T09:14:50.613Z,60.70
2022-12-17T09:17:58.057Z,57.05
2022-12-17T09:21:03.111Z,60.10
2022-12-17T09:24:07.083Z,58.42
2022-12-17T09:27:11.102Z,54.88
2022-12-17T09:30:14.777Z,60.40
2022-12-17T09:33:18.981Z,61.33
2022-12-17T09:36:26.094Z,60.22
2022-12-17T09:39:30.234Z,50.80
2022-12-17T09:43:00.144Z,55.88
2022-12-17T09:46:28.287Z,56.00
2022-12-17T09:49:41.621Z,55.28
2022-12-17T09:52:53.169Z,56.65
2022-12-17T09:56:28.879Z,53.85
2022-12-17T09:59:53.499Z,51.60
2022-12-17T10:03:01.000Z,52.45
2022-12-17T10:06:06.372Z,53.58
2022-12-17T10:09:16.799Z,49.60
2022-12-17T10:12:32.530Z,49.80
2022-12-17T10:15:37.075Z,49.75
2022-12-17T10:18:41.189Z,49.33
2022-12-17T10:21:49.639Z,49.05
2022-12-17T10:25:03.726Z,48.08
2022-12-17T10:28:07.630Z,48.90
2022-12-17T10:31:13.353Z,47.40
2022-12-17T10:34:17.187Z,45.35
2022-12-17T10:37:22.125Z,46.92
2022-12-17T10:40:43.648Z,44.35
2022-12-17T10:43:53.277Z,45.03
2022-12-17T10:50:29.527Z,43.58
2022-12-17T10:53:42.619Z,43.17
2022-12-17T10:56:46.537Z,44.40
2022-12-17T10:59:55.819Z,44.15
2022-12-17T11:03:07.141Z,44.75
2022-12-17T11:06:15.996Z,43.45
2022-12-17T11:09:21.992Z,42.47
2022-12-17T11:12:31.055Z,42.13
2022-12-17T11:15:42.698Z,40.75
2022-12-17T11:18:53.246Z,38.80
2022-12-17T11:22:09.171Z,34.30
2022-12-17T11:25:25.562Z,33.20
2022-12-17T11:28:40.380Z,31.20
2022-12-17T11:31:55.498Z,31.10
2022-12-17T11:35:14.770Z,30.13
2022-12-17T11:38:26.237Z,28.88
2022-12-17T11:42:19.018Z,28.20
2022-12-17T11:45:44.814Z,29.13
2022-12-17T11:48:51.401Z,27.70
2022-12-17T11:52:22.343Z,27.13
2022-12-17T11:55:45.550Z,28.35
2022-12-17T11:59:08.940Z,28.48
2022-12-17T12:02:39.944Z,25.95
2022-12-17T12:06:04.757Z,25.88
2022-12-17T12:09:18.461Z,26.60
2022-12-17T12:13:01.067Z,26.50
2022-12-17T12:16:47.494Z,28.42
2022-12-17T12:20:11.933Z,29.37
2022-12-17T12:23:26.930Z,28.20
2022-12-17T12:26:41.408Z,29.45
2022-12-17T12:29:54.311Z,32.03
2022-12-17T12:33:09.849Z,31.77
2022-12-17T12:36:20.348Z,32.60
2022-12-17T12:39:31.743Z,33.33
2022-12-17T12:42:52.561Z,32.33
2022-12-17T12:46:23.296Z,33.38
2022-12-17T12:49:55.623Z,31.13
2022-12-17T12:53:02.835Z,31.88
2022-12-17T12:56:06.670Z,32.45
2022-12-17T12:59:10.379Z,33.40
2022-12-17T13:02:14.593Z,32.75
2022-12-17T13:05:21.640Z,34.13
2022-12-17T13:08:10.174Z,33.10
2022-12-17T13:11:27.357Z,35.50
2022-12-17T13:14:44.064Z,37.90
2022-12-17T13:17:56.091Z,38.28
2022-12-17T13:20:41.743Z,37.70
2022-12-17T13:23:35.597Z,36.72
2022-12-17T13:26:22.914Z,36.95
2022-12-17T13:29:27.699Z,35.92
2022-12-17T13:32:32.531Z,36.90
2022-12-17T13:35:53.272Z,38.27
2022-12-17T13:39:14.149Z,36.33
2022-12-17T13:42:02.390Z,35.60
2022-12-17T13:44:47.926Z,35.95
2022-12-17T13:47:35.888Z,34.50
2022-12-17T13:50:34.015Z,35.42
2022-12-17T13:53:23.347Z,37.25
2022-12-17T13:56:10.657Z,38.33
2022-12-17T13:58:59.257Z,37.97
2022-12-17T14:01:50.204Z,37.58
2022-12-17T14:04:35.593Z,36.80
2022-12-17T14:07:21.905Z,36.55
2022-12-17T14:10:16.502Z,37.00
2022-12-17T14:13:10.513Z,38.40
2022-12-17T14:15:56.156Z,36.80
2022-12-17T14:18:47.188Z,37.50
2022-12-17T14:21:32.579Z,39.85
2022-12-17T14:24:29.292Z,39.20
2022-12-17T14:27:25.602Z,38.85
2022-12-17T14:30:22.675Z,39.33
2022-12-17T14:33:27.930Z,39.08
2022-12-17T14:36:16.557Z,41.00
2022-12-17T14:39:24.833Z,41.72
2022-12-17T14:42:26.202Z,42.95
2022-12-17T14:45:14.549Z,42.63
2022-12-17T14:48:07.140Z,44.70
2022-12-17T14:50:55.614Z,42.97
2022-12-17T14:53:40.940Z,43.90
2022-12-17T14:56:29.535Z,41.47
2022-12-17T14:59:32.949Z,44.05
2022-12-17T15:02:28.605Z,40.15
2022-12-17T15:05:17.608Z,38.78
2022-12-17T15:08:05.399Z,42.58
2022-12-17T15:10:50.705Z,45.45
2022-12-17T15:13:35.763Z,43.40
2022-12-17T15:16:21.621Z,39.28
2022-12-17T15:19:12.071Z,41.33
2022-12-17T15:21:58.064Z,42.95
2022-12-17T15:24:44.620Z,42.45
2022-12-17T15:27:30.347Z,43.03
2022-12-17T15:30:19.191Z,43.65
2022-12-17T15:33:04.699Z,44.05
2022-12-17T15:35:49.946Z,47.25
2022-12-17T15:38:35.847Z,44.38
2022-12-17T15:41:40.671Z,43.35
2022-12-17T15:44:28.134Z,43.65
2022-12-17T15:47:13.738Z,43.80
2022-12-17T15:50:00.485Z,43.47
2022-12-17T15:52:49.073Z,40.38
2022-12-17T15:55:34.783Z,45.08
2022-12-17T16:01:20.271Z,42.28
2022-12-17T16:04:09.188Z,44.03
2022-12-17T16:06:59.167Z,47.15
2022-12-17T16:09:45.311Z,47.75
2022-12-17T16:12:30.918Z,45.10
2022-12-17T16:15:16.595Z,44.03
2022-12-17T16:18:02.283Z,46.22
2022-12-17T16:20:49.754Z,45.88
2022-12-17T16:23:36.323Z,44.70
2022-12-17T16:26:23.121Z,44.92
2022-12-17T16:29:08.757Z,45.95
2022-12-17T16:31:53.999Z,42.25
2022-12-17T16:34:43.184Z,47.72
2022-12-17T16:37:28.334Z,49.85
2022-12-17T16:40:14.041Z,52.13
2022-12-17T16:42:59.322Z,47.10
2022-12-17T16:45:50.347Z,47.90
2022-12-17T16:48:38.937Z,53.45
2022-12-17T16:51:29.347Z,54.45
2022-12-17T16:54:18.778Z,45.88
2022-12-17T16:57:04.040Z,48.38
2022-12-17T16:59:50.688Z,49.00
2022-12-17T17:02:36.660Z,50.83
2022-12-17T17:05:22.208Z,51.20
2022-12-17T17:08:07.641Z,48.92
2022-12-17T17:10:55.994Z,50.33
2022-12-17T17:13:46.342Z,52.67
2022-12-17T17:16:35.787Z,51.13
2022-12-17T17:19:24.394Z,51.15
2022-12-17T17:22:09.764Z,47.47
2022-12-17T17:24:55.474Z,50.17
2022-12-17T17:27:42.589Z,52.28
2022-12-17T17:30:27.954Z,49.80
2022-12-17T17:33:13.794Z,50.85
2022-12-17T17:36:17.675Z,45.17
2022-12-17T17:39:04.091Z,50.03
2022-12-17T17:41:49.282Z,48.65
2022-12-17T17:44:35.600Z,48.78
2022-12-17T17:47:22.010Z,48.67
2022-12-17T17:50:07.606Z,49.70
2022-12-17T17:52:52.953Z,46.10
2022-12-17T17:55:38.577Z,49.50
2022-12-17T17:58:24.014Z,46.45
2022-12-17T18:01:12.930Z,49.25
2022-12-17T18:04:02.696Z,45.55
2022-12-17T18:07:23.253Z,49.35
2022-12-17T18:09:54.366Z,47.13
2022-12-17T18:12:58.259Z,50.00
2022-12-17T18:15:43.734Z,51.67
2022-12-17T18:18:29.401Z,52.58
2022-12-17T18:21:17.994Z,56.03
2022-12-17T18:24:06.865Z,52.17
2022-12-17T18:26:56.074Z,52.20
2022-12-17T18:29:41.441Z,52.60
2022-12-17T18:32:26.915Z,54.65
2022-12-17T18:35:12.505Z,54.03
2022-12-17T18:37:57.793Z,52.55
2022-12-17T18:40:47.842Z,55.72
2022-12-17T18:43:33.457Z,52.90
2022-12-17T18:46:23.164Z,50.00
2022-12-17T18:49:12.048Z,53.03
2022-12-17T18:52:02.876Z,52.53
2022-12-17T18:54:48.331Z,51.65
2022-12-17T18:57:33.978Z,54.30
2022-12-17T19:00:20.022Z,57.20
2022-12-17T19:03:05.825Z,58.75
2022-12-17T19:05:54.162Z,56.03
2022-12-17T19:08:40.086Z,55.85
2022-12-17T19:11:37.997Z,49.72
2022-12-17T19:14:27.544Z,52.83
2022-12-17T19:17:14.323Z,53.42
2022-12-17T19:19:59.963Z,53.60
2022-12-17T19:22:45.687Z,53.58
2022-12-17T19:25:31.144Z,50.60
2022-12-17T19:28:21.625Z,51.05
2022-12-17T19:31:08.159Z,49.47
2022-12-17T19:33:59.289Z,50.78
2022-12-17T19:36:45.430Z,52.03
2022-12-17T19:39:31.000Z,57.88
2022-12-17T19:42:30.708Z,51.90
2022-12-17T19:48:07.414Z,46.42
2022-12-17T19:50:57.292Z,43.55
2022-12-17T19:53:44.523Z,51.72
2022-12-17T19:56:39.118Z,54.95
2022-12-17T19:59:24.759Z,55.33
2022-12-17T20:02:10.851Z,53.70
2022-12-17T20:04:56.377Z,52.78
2022-12-17T20:07:41.972Z,52.00
2022-12-17T20:10:27.500Z,52.25
2022-12-17T20:13:13.046Z,53.50
2022-12-17T20:16:03.853Z,51.30
2022-12-17T20:18:49.702Z,53.03
2022-12-17T20:21:35.205Z,55.85
2022-12-17T20:24:23.539Z,57.22
2022-12-17T20:27:12.841Z,55.53
2022-12-17T20:29:58.086Z,52.85
2022-12-17T20:32:44.493Z,54.75
2022-12-17T20:35:29.733Z,51.20
2022-12-17T20:38:15.253Z,53.75
2022-12-17T20:41:01.288Z,54.92
2022-12-17T20:43:47.317Z,58.20
2022-12-17T20:46:34.130Z,58.05
2022-12-17T20:49:20.089Z,61.65
2022-12-17T20:52:05.715Z,60.38
2022-12-17T20:54:51.154Z,59.95
2022-12-17T20:57:36.637Z,58.13
2022-12-17T21:00:22.217Z,61.50
2022-12-17T21:03:07.913Z,57.50
2022-12-17T21:05:53.340Z,59.10
2022-12-17T21:08:44.781Z,55.38
2022-12-17T21:11:34.968Z,56.80
2022-12-17T21:14:20.863Z,51.05
2022-12-17T21:17:06.184Z,54.47
2022-12-17T21:19:51.832Z,57.33
2022-12-17T21:22:37.058Z,53.60
2022-12-17T21:25:25.325Z,56.55
2022-12-17T21:28:10.942Z,54.20
2022-12-17T21:30:56.446Z,57.97
2022-12-17T21:33:42.015Z,57.30
2022-12-17T21:36:30.297Z,57.33
2022-12-17T21:39:17.590Z,60.20
2022-12-17T21:42:21.467Z,56.45
2022-12-17T21:45:07.238Z,58.35
2022-12-17T21:47:52.668Z,58.72
2022-12-17T21:50:45.703Z,56.88
2022-12-17T21:53:31.934Z,56.65
2022-12-17T21:56:18.534Z,54.30
2022-12-17T21:59:04.499Z,53.72
2022-12-17T22:01:51.082Z,51.28
2022-12-17T22:04:36.684Z,54.30
2022-12-17T22:07:31.185Z,54.40
2022-12-17T22:10:35.630Z,55.28
2022-12-17T22:13:44.694Z,55.28
2022-12-17T22:16:34.626Z,54.65
2022-12-17T22:19:23.188Z,49.83
2022-12-17T22:22:08.667Z,49.60
2022-12-17T22:24:54.117Z,53.78
2022-12-17T22:27:43.044Z,51.78
2022-12-17T22:30:46.864Z,52.55
2022-12-17T22:34:23.371Z,52.63
2022-12-17T22:39:43.391Z,49.88
2022-12-17T22:44:37.655Z,50.90
2022-12-17T22:46:23.325Z,47.20
2022-12-17T22:49:09.285Z,48.85
2022-12-17T22:51:54.826Z,51.55
2022-12-17T22:54:40.344Z,52.10
2022-12-17T22:57:37.725Z,53.17
2022-12-17T23:00:29.112Z,52.63
2022-12-17T23:03:14.762Z,53.55
2022-12-17T23:06:08.994Z,53.83
2022-12-17T23:08:54.863Z,50.28
2022-12-17T23:11:40.755Z,53.60
2022-12-17T23:14:26.125Z,53.83
2022-12-17T23:17:11.580Z,56.38
2022-12-17T23:19:57.113Z,55.92
2022-12-17T23:22:42.806Z,54.50
2022-12-17T23:25:29.392Z,53.20
2022-12-17T23:28:14.786Z,49.42
2022-12-17T23:31:32.223Z,47.78
2022-12-17T23:34:17.830Z,50.25
2022-12-17T23:37:03.607Z,50.83
2022-12-17T23:39:48.782Z,54.97
2022-12-17T23:42:37.469Z,55.22
2022-12-17T23:45:23.282Z,54.35
2022-12-17T23:48:09.151Z,51.28
2022-12-17T23:51:00.690Z,53.80
2022-12-17T23:53:46.455Z,53.33
2022-12-17T23:56:32.658Z,49.75
2022-12-17T23:59:17.904Z,48.42
